createdAt,value
2022-09-28T00:00:11.607Z,88.77
2022-09-28T00:03:15.143Z,88.69
2022-09-28T00:06:21.223Z,88.33
2022-09-28T00:09:24.119Z,86.96
2022-09-28T00:12:28.328Z,84.93
2022-09-28T00:15:31.939Z,84.20
2022-09-28T00:18:36.251Z,83.19
2022-09-28T00:21:40.461Z,83.19
2022-09-28T00:24:43.283Z,83.93
2022-09-28T00:27:50.444Z,84.69
2022-09-28T00:30:56.602Z,84.75
2022-09-28T00:34:00.581Z,85.24
2022-09-28T00:37:04.962Z,85.25
2022-09-28T00:40:07.938Z,86.11
2022-09-28T00:43:20.695Z,86.62
2022-09-28T00:46:32.553Z,86.11
2022-09-28T00:49:50.877Z,86.40
2022-09-28T00:52:57.691Z,86.91
2022-09-28T00:56:07.544Z,87.65
2022-09-28T00:59:10.936Z,87.42
2022-09-28T01:02:14.207Z,87.99
2022-09-28T01:05:24.810Z,88.16
2022-09-28T01:08:30.138Z,87.70
2022-09-28T01:11:34.915Z,87.80
2022-09-28T01:14:39.974Z,87.60
2022-09-28T01:18:04.396Z,87.36
2022-09-28T01:21:19.374Z,88.00
2022-09-28T01:24:41.146Z,88.02
2022-09-28T01:27:52.638Z,88.11
2022-09-28T01:31:13.165Z,88.31
2022-09-28T01:34:40.038Z,88.04
2022-09-28T01:37:54.936Z,88.67
2022-09-28T01:40:59.960Z,89.21
2022-09-28T01:44:05.032Z,89.45
2022-09-28T01:47:09.656Z,89.50
2022-09-28T01:50:16.251Z,89.29
2022-09-28T01:53:26.208Z,88.71
2022-09-28T01:56:36.995Z,88.61
2022-09-28T01:59:44.540Z,88.47
2022-09-28T02:02:57.425Z,88.82
2022-09-28T02:06:08.374Z,89.44
2022-09-28T02:09:22.696Z,89.46
2022-09-28T02:12:41.717Z,89.70
2022-09-28T02:16:00.484Z,89.67
2022-09-28T02:19:06.199Z,89.21
2022-09-28T02:22:15.032Z,89.24
2022-09-28T02:25:39.792Z,89.81
2022-09-28T02:28:43.211Z,89.34
2022-09-28T02:31:46.618Z,89.14
2022-09-28T02:34:49.946Z,89.00
2022-09-28T02:37:55.127Z,88.92
2022-09-28T02:41:32.109Z,89.00
2022-09-28T02:45:00.618Z,89.18
2022-09-28T02:48:19.128Z,87.40
2022-09-28T02:51:36.550Z,86.89
2022-09-28T02:54:46.011Z,85.92
2022-09-28T02:58:27.548Z,86.78
2022-09-28T03:01:38.811Z,86.76
2022-09-28T03:04:52.588Z,86.07
2022-09-28T03:08:09.740Z,86.18
2022-09-28T03:11:22.854Z,86.00
2022-09-28T03:14:26.658Z,86.48
2022-09-28T03:17:31.697Z,86.73
2022-09-28T03:20:37.322Z,87.00
2022-09-28T03:23:40.968Z,86.72
2022-09-28T03:26:45.308Z,87.27
2022-09-28T03:29:48.996Z,86.80
2022-09-28T03:33:00.844Z,86.51
2022-09-28T03:36:06.889Z,86.74
2022-09-28T03:39:09.614Z,86.39
2022-09-28T03:42:13.898Z,86.20
2022-09-28T03:45:17.388Z,86.17
2022-09-28T03:48:32.403Z,85.87
2022-09-28T03:51:35.921Z,86.66
2022-09-28T03:54:39.204Z,86.15
2022-09-28T03:57:42.193Z,85.74
2022-09-28T04:00:45.243Z,85.66
2022-09-28T04:03:59.031Z,85.64
2022-09-28T04:07:02.205Z,85.19
2022-09-28T04:10:11.011Z,86.42
2022-09-28T04:13:15.402Z,86.55
2022-09-28T04:16:19.591Z,86.89
2022-09-28T04:19:24.251Z,86.13
2022-09-28T04:22:28.337Z,85.97
2022-09-28T04:25:31.109Z,86.88
2022-09-28T04:28:54.161Z,87.48
2022-09-28T04:31:57.175Z,87.34
2022-09-28T04:35:03.227Z,88.42
2022-09-28T04:38:06.085Z,87.75
2022-09-28T04:41:10.329Z,87.72
2022-09-28T04:44:15.051Z,87.16
2022-09-28T04:47:20.159Z,86.99
2022-09-28T04:50:33.240Z,86.64
2022-09-28T04:53:43.796Z,87.18
2022-09-28T04:56:47.921Z,87.98
2022-09-28T04:59:51.910Z,87.64
2022-09-28T05:02:56.343Z,88.01
2022-09-28T05:06:00.336Z,87.99
2022-09-28T05:09:03.151Z,88.13
2022-09-28T05:12:09.617Z,88.29
2022-09-28T05:15:14.756Z,88.33
2022-09-28T05:18:20.815Z,88.91
2022-09-28T05:21:25.931Z,89.21
2022-09-28T05:24:29.263Z,89.07
2022-09-28T05:27:34.296Z,89.76
2022-09-28T05:30:40.105Z,90.25
2022-09-28T05:33:43.607Z,89.92
2022-09-28T05:36:47.860Z,90.17
2022-09-28T05:39:50.442Z,89.62
2022-09-28T05:43:03.521Z,89.22
2022-09-28T05:46:08.001Z,87.82
2022-09-28T05:49:13.016Z,83.58
2022-09-28T05:52:17.652Z,78.11
2022-09-28T05:55:21.857Z,72.82
2022-09-28T05:58:28.971Z,69.33
2022-09-28T06:01:39.718Z,65.57
2022-09-28T06:04:52.499Z,61.94
2022-09-28T06:07:59.289Z,62.75
2022-09-28T06:11:12.882Z,60.47
2022-09-28T06:14:18.255Z,57.61
2022-09-28T06:17:22.226Z,56.38
2022-09-28T06:20:29.350Z,54.97
2022-09-28T06:23:35.502Z,53.69
2022-09-28T06:26:39.950Z,51.96
2022-09-28T06:29:46.410Z,51.27
2022-09-28T06:32:53.942Z,50.83
2022-09-28T06:35:59.516Z,49.36
2022-09-28T06:39:02.520Z,49.61
2022-09-28T06:42:05.921Z,48.97
2022-09-28T06:45:13.651Z,47.29
2022-09-28T06:48:18.201Z,47.22
2022-09-28T06:51:23.933Z,44.88
2022-09-28T06:54:28.866Z,47.43
2022-09-28T06:57:33.193Z,46.05
2022-09-28T07:00:41.733Z,46.21
2022-09-28T07:03:46.657Z,45.98
2022-09-28T07:06:52.858Z,46.24
2022-09-28T07:09:57.880Z,46.18
2022-09-28T07:13:04.815Z,45.41
2022-09-28T07:16:10.259Z,45.99
2022-09-28T07:19:16.755Z,45.66
2022-09-28T07:22:33.282Z,44.34
2022-09-28T07:25:45.555Z,43.80
2022-09-28T07:28:56.030Z,44.74
2022-09-28T07:32:01.923Z,45.80
2022-09-28T07:35:08.422Z,45.78
2022-09-28T07:38:12.990Z,45.64
2022-09-28T07:41:21.720Z,44.84
2022-09-28T07:44:26.016Z,44.21
2022-09-28T07:47:34.596Z,46.67
2022-09-28T07:50:55.264Z,47.62
2022-09-28T07:54:03.230Z,45.01
2022-09-28T07:57:09.875Z,45.68
2022-09-28T08:00:15.973Z,46.21
2022-09-28T08:03:24.846Z,47.03
2022-09-28T08:06:31.065Z,47.12
2022-09-28T08:09:36.060Z,46.76
2022-09-28T08:12:48.069Z,46.39
2022-09-28T08:16:00.012Z,45.43
2022-09-28T08:19:04.801Z,45.20
2022-09-28T08:22:10.133Z,46.32
2022-09-28T08:25:15.162Z,46.00
2022-09-28T08:28:19.626Z,46.49
2022-09-28T08:31:24.946Z,44.72
2022-09-28T08:34:31.047Z,47.81
2022-09-28T08:37:35.913Z,45.70
2022-09-28T08:41:00.240Z,47.19
2022-09-28T08:44:10.750Z,48.78
2022-09-28T08:47:41.130Z,46.41
2022-09-28T08:51:11.630Z,45.79
2022-09-28T08:54:29.615Z,46.67
2022-09-28T08:57:50.643Z,46.18
2022-09-28T09:00:55.003Z,46.57
2022-09-28T09:03:58.947Z,47.76
2022-09-28T09:07:13.044Z,49.19
2022-09-28T09:11:05.871Z,49.00
2022-09-28T09:14:23.261Z,47.56
2022-09-28T09:17:50.362Z,46.64
2022-09-28T09:20:59.547Z,47.47
2022-09-28T09:24:18.196Z,48.43
2022-09-28T09:27:21.324Z,49.76
2022-09-28T09:30:30.762Z,49.25
2022-09-28T09:33:46.956Z,50.35
2022-09-28T09:37:11.983Z,48.75
2022-09-28T09:40:43.115Z,49.68
2022-09-28T09:44:26.860Z,48.56
2022-09-28T09:47:36.159Z,47.13
2022-09-28T09:50:51.096Z,46.54
2022-09-28T09:54:06.830Z,46.63
2022-09-28T09:57:36.260Z,47.66
2022-09-28T10:00:45.677Z,50.09
2022-09-28T10:03:54.352Z,48.93
2022-09-28T10:06:59.588Z,48.27
2022-09-28T10:10:03.393Z,48.65
2022-09-28T10:13:19.866Z,48.48
2022-09-28T10:16:25.179Z,48.05
2022-09-28T10:19:32.892Z,47.00
2022-09-28T10:22:41.876Z,47.27
2022-09-28T10:25:46.658Z,49.69
2022-09-28T10:29:05.324Z,50.44
2022-09-28T10:32:19.748Z,52.24
2022-09-28T10:35:28.437Z,51.91
2022-09-28T10:38:32.233Z,51.76
2022-09-28T10:41:49.706Z,51.21
2022-09-28T10:44:57.423Z,51.29
2022-09-28T10:48:04.254Z,51.40
2022-09-28T10:51:08.939Z,51.81
2022-09-28T10:54:22.208Z,52.76
2022-09-28T10:57:45.058Z,53.83
2022-09-28T11:00:50.186Z,53.77
2022-09-28T11:04:08.160Z,55.67
2022-09-28T11:07:22.705Z,56.53
2022-09-28T11:10:27.787Z,54.22
2022-09-28T11:13:33.535Z,54.37
2022-09-28T11:16:38.038Z,53.58
2022-09-28T11:19:43.745Z,53.27
2022-09-28T11:22:52.577Z,52.50
2022-09-28T11:26:06.935Z,54.36
2022-09-28T11:29:26.845Z,53.55
2022-09-28T11:32:45.064Z,52.92
2022-09-28T11:36:00.201Z,52.66
2022-09-28T11:39:18.127Z,53.52
2022-09-28T11:42:29.707Z,54.54
2022-09-28T11:45:33.727Z,53.80
2022-09-28T11:48:43.125Z,55.00
2022-09-28T11:51:48.847Z,53.93
2022-09-28T11:54:55.808Z,54.44
2022-09-28T11:58:06.116Z,54.12
2022-09-28T12:01:28.249Z,54.56
2022-09-28T12:05:09.901Z,54.62
2022-09-28T12:08:22.561Z,54.60
2022-09-28T12:11:39.548Z,54.72
2022-09-28T12:14:45.164Z,53.79
2022-09-28T12:17:54.736Z,55.01
2022-09-28T12:21:11.266Z,55.00
2022-09-28T12:24:24.198Z,56.48
2022-09-28T12:27:33.395Z,55.42
2022-09-28T12:30:40.797Z,55.76
2022-09-28T12:33:47.472Z,54.84
2022-09-28T12:37:15.923Z,55.85
2022-09-28T12:40:18.996Z,56.45
2022-09-28T12:43:59.743Z,56.92
2022-09-28T12:47:29.897Z,56.21
2022-09-28T12:50:56.757Z,54.95
2022-09-28T12:54:11.337Z,54.72
2022-09-28T12:57:34.966Z,52.50
2022-09-28T13:01:27.746Z,52.91
2022-09-28T13:04:39.902Z,53.19
2022-09-28T13:08:13.739Z,52.69
2022-09-28T13:11:38.765Z,53.00
2022-09-28T13:14:56.072Z,54.19
2022-09-28T13:18:08.854Z,54.34
2022-09-28T13:21:41.979Z,54.06
2022-09-28T13:24:48.137Z,54.74
2022-09-28T13:28:10.988Z,53.83
2022-09-28T13:31:32.414Z,53.20
2022-09-28T13:34:37.139Z,52.93
2022-09-28T13:37:50.592Z,52.99
2022-09-28T13:41:05.203Z,53.56
2022-09-28T13:44:12.555Z,54.50
2022-09-28T13:47:39.917Z,54.30
2022-09-28T13:51:06.144Z,54.46
2022-09-28T13:54:41.536Z,53.53
2022-09-28T13:58:04.844Z,54.33
2022-09-28T14:01:22.229Z,52.76
2022-09-28T14:05:04.813Z,51.68
2022-09-28T14:08:23.752Z,52.50
2022-09-28T14:11:27.969Z,51.71
2022-09-28T14:14:51.193Z,52.27
2022-09-28T14:18:00.451Z,52.97
2022-09-28T14:21:34.849Z,53.00
2022-09-28T14:24:49.456Z,52.73
2022-09-28T14:28:01.455Z,53.42
2022-09-28T14:31:09.980Z,53.81
2022-09-28T14:34:35.857Z,54.33
2022-09-28T14:38:02.971Z,55.26
2022-09-28T14:41:14.912Z,54.33
2022-09-28T14:44:22.057Z,55.01
2022-09-28T14:47:45.893Z,56.14
2022-09-28T14:50:50.044Z,56.38
2022-09-28T14:54:12.925Z,55.12
2022-09-28T14:57:24.952Z,55.63
2022-09-28T15:00:32.938Z,55.72
2022-09-28T15:03:49.855Z,56.39
2022-09-28T15:06:56.134Z,56.44
2022-09-28T15:10:11.161Z,56.53
2022-09-28T15:13:25.250Z,56.30
2022-09-28T15:16:31.942Z,57.08
2022-09-28T15:20:03.861Z,57.87
2022-09-28T15:23:24.870Z,58.31
2022-09-28T15:26:36.728Z,58.31
2022-09-28T15:30:12.808Z,59.02
2022-09-28T15:33:44.103Z,59.44
2022-09-28T15:36:48.810Z,58.62
2022-09-28T15:39:59.155Z,59.09
2022-09-28T15:43:30.918Z,59.13
2022-09-28T15:46:38.957Z,59.79
2022-09-28T15:50:00.333Z,59.92
2022-09-28T15:53:06.134Z,60.29
2022-09-28T15:56:10.396Z,60.70
2022-09-28T15:59:14.027Z,60.85
2022-09-28T16:02:20.821Z,61.60
2022-09-28T16:05:51.058Z,62.77
2022-09-28T16:09:41.292Z,62.61
2022-09-28T16:13:09.931Z,62.39
2022-09-28T16:16:28.569Z,62.87
2022-09-28T16:19:45.019Z,61.39
2022-09-28T16:23:36.709Z,61.33
2022-09-28T16:26:40.605Z,61.12
2022-09-28T16:30:21.969Z,61.34
2022-09-28T16:33:48.938Z,61.51
2022-09-28T16:36:56.117Z,62.12
2022-09-28T16:40:00.395Z,62.79
2022-09-28T16:43:08.934Z,62.96
2022-09-28T16:46:20.903Z,62.93
2022-09-28T16:49:25.884Z,63.00
2022-09-28T16:52:55.739Z,62.43
2022-09-28T16:56:03.132Z,62.68
2022-09-28T16:59:13.640Z,62.76
2022-09-28T17:05:51.132Z,63.14
2022-09-28T17:09:07.375Z,63.93
2022-09-28T17:12:20.692Z,63.46
2022-09-28T17:15:27.370Z,63.72
2022-09-28T17:18:40.108Z,63.13
2022-09-28T17:21:52.454Z,64.00
2022-09-28T17:24:56.970Z,63.76
2022-09-28T17:28:09.847Z,64.76
2022-09-28T17:31:22.663Z,65.28
2022-09-28T17:34:38.842Z,67.00
2022-09-28T17:37:46.065Z,67.08
2022-09-28T17:40:56.152Z,67.60
2022-09-28T17:44:03.202Z,68.67
2022-09-28T17:47:17.736Z,69.57
2022-09-28T17:50:35.638Z,70.04
2022-09-28T17:53:45.984Z,70.72
2022-09-28T17:56:53.907Z,71.51
2022-09-28T18:00:02.130Z,72.46
2022-09-28T18:03:26.140Z,73.06
2022-09-28T18:06:33.931Z,75.37
2022-09-28T18:09:39.950Z,76.13
2022-09-28T18:12:49.991Z,76.96
2022-09-28T18:16:01.633Z,79.22
2022-09-28T18:19:16.635Z,79.48
2022-09-28T18:22:22.921Z,81.52
2022-09-28T18:25:39.126Z,82.90
2022-09-28T18:28:46.924Z,83.84
2022-09-28T18:31:58.949Z,84.75
2022-09-28T18:35:20.602Z,83.98
2022-09-28T18:38:36.291Z,84.86
2022-09-28T18:41:54.868Z,85.79
2022-09-28T18:45:21.851Z,87.24
2022-09-28T18:48:31.966Z,88.07
2022-09-28T18:51:37.277Z,88.80
2022-09-28T18:54:54.341Z,88.95
2022-09-28T18:58:17.892Z,88.24
2022-09-28T19:01:32.248Z,86.97
2022-09-28T19:04:36.968Z,87.76
2022-09-28T19:07:44.610Z,87.17
2022-09-28T19:11:15.053Z,87.90
2022-09-28T19:14:18.757Z,89.05
2022-09-28T19:17:22.828Z,89.89
2022-09-28T19:20:26.922Z,89.71
2022-09-28T19:23:46.871Z,88.95
2022-09-28T19:27:02.998Z,89.66
2022-09-28T19:30:19.936Z,89.58
2022-09-28T19:33:31.240Z,89.99
2022-09-28T19:36:37.876Z,90.47
2022-09-28T19:39:53.226Z,89.87
2022-09-28T19:43:02.966Z,90.53
2022-09-28T19:46:20.028Z,91.00
2022-09-28T19:49:24.935Z,91.36
2022-09-28T19:52:28.415Z,91.14
2022-09-28T19:55:36.917Z,90.34
2022-09-28T19:58:40.822Z,90.05
2022-09-28T20:01:56.386Z,90.68
2022-09-28T20:05:16.050Z,90.25
2022-09-28T20:08:24.931Z,89.71
2022-09-28T20:11:34.884Z,89.69
2022-09-28T20:14:40.442Z,90.34
2022-09-28T20:17:44.759Z,91.02
2022-09-28T20:20:49.743Z,91.87
2022-09-28T20:23:59.852Z,90.87
2022-09-28T20:27:16.056Z,90.30
2022-09-28T20:30:21.069Z,90.67
2022-09-28T20:33:28.940Z,90.85
2022-09-28T20:36:34.960Z,90.95
2022-09-28T20:39:44.107Z,91.02
2022-09-28T20:42:49.493Z,91.71
2022-09-28T20:45:53.007Z,91.58
2022-09-28T20:48:57.929Z,91.58
2022-09-28T20:52:02.904Z,91.59
2022-09-28T20:55:11.111Z,91.60
2022-09-28T20:58:14.202Z,91.52
2022-09-28T21:01:30.054Z,91.36
2022-09-28T21:04:32.848Z,91.72
2022-09-28T21:07:36.012Z,91.20
2022-09-28T21:10:45.168Z,91.22
2022-09-28T21:13:48.978Z,91.62
2022-09-28T21:16:52.620Z,91.29
2022-09-28T21:19:57.324Z,91.47
2022-09-28T21:23:00.949Z,91.86
2022-09-28T21:26:06.785Z,91.45
2022-09-28T21:29:14.284Z,91.51
2022-09-28T21:32:18.082Z,91.64
2022-09-28T21:35:21.151Z,91.87
2022-09-28T21:38:23.979Z,91.84
2022-09-28T21:41:29.192Z,91.95
2022-09-28T21:44:33.579Z,92.04
2022-09-28T21:47:36.198Z,92.45
2022-09-28T21:50:40.173Z,92.38
2022-09-28T21:53:43.296Z,92.04
2022-09-28T21:56:46.563Z,92.37
2022-09-28T21:59:49.030Z,92.24
2022-09-28T22:02:53.431Z,91.87
2022-09-28T22:05:56.880Z,91.89
2022-09-28T22:09:00.033Z,92.44
2022-09-28T22:12:03.385Z,92.44
2022-09-28T22:15:06.670Z,92.56
2022-09-28T22:18:09.387Z,93.05
2022-09-28T22:21:16.363Z,92.90
2022-09-28T22:24:19.504Z,92.90
2022-09-28T22:27:21.998Z,93.10
2022-09-28T22:30:24.982Z,93.51
2022-09-28T22:33:30.448Z,93.07
2022-09-28T22:36:33.569Z,93.23
2022-09-28T22:39:42.151Z,92.92
2022-09-28T22:42:45.544Z,93.19
2022-09-28T22:45:48.590Z,93.10
2022-09-28T22:48:54.925Z,93.11
2022-09-28T22:51:58.247Z,92.88
2022-09-28T22:55:02.036Z,92.85
2022-09-28T22:58:04.687Z,92.93
2022-09-28T23:01:15.605Z,93.19
2022-09-28T23:04:18.415Z,93.58
2022-09-28T23:07:21.527Z,93.19
2022-09-28T23:10:26.922Z,93.55
2022-09-28T23:13:32.485Z,93.93
2022-09-28T23:16:35.255Z,94.30
2022-09-28T23:19:38.043Z,94.07
2022-09-28T23:22:40.500Z,93.66
2022-09-28T23:25:43.445Z,93.67
2022-09-28T23:28:47.148Z,93.49
2022-09-28T23:31:50.918Z,93.25
2022-09-28T23:34:53.565Z,93.16
2022-09-28T23:37:56.805Z,92.81
2022-09-28T23:40:59.921Z,92.92
2022-09-28T23:44:04.159Z,93.38
2022-09-28T23:47:07.058Z,93.55
2022-09-28T23:50:10.170Z,93.69
2022-09-28T23:53:14.381Z,93.90
2022-09-28T23:56:17.362Z,93.72
2022-09-28T23:59:20.277Z,93.67
